sensor_id;sensor_type;location;lat;lon;timestamp;pressure;altitude;pressure_sealevel;temperature;humidity
56074;BME280;41950;55.840;37.442;2023-05-02T00:00:26;100031.63;;;2.07;75.87
56074;BME280;41950;55.840;37.442;2023-05-02T00:02:52;100125.91;;;2.63;76.43
56074;BME280;41950;55.840;37.442;2023-05-02T00:05:18;99989.81;;;1.69;76.55
56074;BME280;41950;55.840;37.442;2023-05-02T00:07:44;100006.06;;;1.71;76.82
56074;BME280;41950;55.840;37.442;2023-05-02T00:10:10;100143.63;;;2.52;76.76
56074;BME280;41950;55.840;37.442;2023-05-02T00:12:35;100062.38;;;2.09;76.61
56074;BME280;41950;55.840;37.442;2023-05-02T00:15:01;100160.84;;;2.59;76.56
56074;BME280;41950;55.840;37.442;2023-05-02T00:17:28;100120.06;;;2.31;76.61
56074;BME280;41950;55.840;37.442;2023-05-02T00:19:54;100104.19;;;2.09;77.13
56074;BME280;41950;55.840;37.442;2023-05-02T00:22:19;100087.81;;;2.01;77.40
56074;BME280;41950;55.840;37.442;2023-05-02T00:24:45;100183.59;;;2.45;77.68
56074;BME280;41950;55.840;37.442;2023-05-02T00:27:11;100135.91;;;2.14;78.06
56074;BME280;41950;55.840;37.442;2023-05-02T00:29:36;100173.13;;;2.36;78.17
56074;BME280;41950;55.840;37.442;2023-05-02T00:32:04;100189.47;;;2.41;78.05
56074;BME280;41950;55.840;37.442;2023-05-02T00:34:30;100101.38;;;1.97;77.66
56074;BME280;41950;55.840;37.442;2023-05-02T00:36:56;100140.09;;;2.11;77.54
56074;BME280;41950;55.840;37.442;2023-05-02T00:39:22;100153.06;;;2.18;77.29
56074;BME280;41950;55.840;37.442;2023-05-02T00:41:48;100049.22;;;1.58;77.66
56074;BME280;41950;55.840;37.442;2023-05-02T00:44:14;100075.94;;;1.69;77.66
56074;BME280;41950;55.840;37.442;2023-05-02T00:46:40;100054.00;;;1.44;77.97
56074;BME280;41950;55.840;37.442;2023-05-02T00:49:05;100007.16;;;1.12;78.31
56074;BME280;41950;55.840;37.442;2023-05-02T00:51:34;100180.88;;;2.03;78.59
56074;BME280;41950;55.840;37.442;2023-05-02T00:54:00;100188.59;;;2.05;78.80
56074;BME280;41950;55.840;37.442;2023-05-02T00:56:26;100073.28;;;1.33;79.20
56074;BME280;41950;55.840;37.442;2023-05-02T00:58:52;100171.72;;;1.80;79.45
56074;BME280;41950;55.840;37.442;2023-05-02T01:09:25;100079.78;;;1.20;80.19
56074;BME280;41950;55.840;37.442;2023-05-02T01:12:21;100050.81;;;0.88;80.26
56074;BME280;41950;55.840;37.442;2023-05-02T01:14:53;100232.78;;;1.98;80.66
56074;BME280;41950;55.840;37.442;2023-05-02T01:17:23;100237.88;;;1.96;81.05
56074;BME280;41950;55.840;37.442;2023-05-02T01:19:55;100196.19;;;1.69;81.18
56074;BME280;41950;55.840;37.442;2023-05-02T01:22:23;100188.16;;;1.57;81.35
56074;BME280;41950;55.840;37.442;2023-05-02T01:25:04;100153.59;;;1.38;81.28
56074;BME280;41950;55.840;37.442;2023-05-02T01:30:37;100260.63;;;1.87;81.48
56074;BME280;41950;55.840;37.442;2023-05-02T01:33:10;100211.97;;;1.54;81.51
56074;BME280;41950;55.840;37.442;2023-05-02T01:35:36;100191.19;;;1.42;81.50
56074;BME280;41950;55.840;37.442;2023-05-02T01:38:04;100105.34;;;0.88;81.54
56074;BME280;41950;55.840;37.442;2023-05-02T01:40:32;100265.72;;;1.85;81.62
56074;BME280;41950;55.840;37.442;2023-05-02T01:42:59;100276.78;;;1.84;81.52
56074;BME280;41950;55.840;37.442;2023-05-02T01:45:29;100282.72;;;1.83;81.48
56074;BME280;41950;55.840;37.442;2023-05-02T01:47:56;100250.66;;;1.65;81.79
56074;BME280;41950;55.840;37.442;2023-05-02T01:50:23;100230.84;;;1.58;81.80
56074;BME280;41950;55.840;37.442;2023-05-02T01:52:51;100226.34;;;1.49;82.02
56074;BME280;41950;55.840;37.442;2023-05-02T01:55:18;100221.31;;;1.52;82.04
56074;BME280;41950;55.840;37.442;2023-05-02T01:57:47;100295.69;;;1.90;82.14
56074;BME280;41950;55.840;37.442;2023-05-02T02:00:16;100196.31;;;1.42;81.87
56074;BME280;41950;55.840;37.442;2023-05-02T02:02:44;100301.03;;;1.97;81.83
56074;BME280;41950;55.840;37.442;2023-05-02T02:05:11;100224.00;;;1.57;81.83
56074;BME280;41950;55.840;37.442;2023-05-02T02:07:38;100144.91;;;1.03;81.99
56074;BME280;41950;55.840;37.442;2023-05-02T02:10:05;100294.78;;;1.88;82.10
56074;BME280;41950;55.840;37.442;2023-05-02T02:12:53;100284.28;;;1.78;82.21
56074;BME280;41950;55.840;37.442;2023-05-02T02:15:30;100236.56;;;1.49;82.35
56074;BME280;41950;55.840;37.442;2023-05-02T02:18:01;100303.28;;;1.86;82.40
56074;BME280;41950;55.840;37.442;2023-05-02T02:20:30;100305.97;;;1.91;82.45
56074;BME280;41950;55.840;37.442;2023-05-02T02:22:59;100285.25;;;1.82;82.44
56074;BME280;41950;55.840;37.442;2023-05-02T02:25:27;100320.09;;;2.08;82.01
56074;BME280;41950;55.840;37.442;2023-05-02T02:27:54;100245.59;;;1.66;81.87
56074;BME280;41950;55.840;37.442;2023-05-02T02:30:20;100313.16;;;2.04;81.84
56074;BME280;41950;55.840;37.442;2023-05-02T02:32:46;100276.66;;;1.80;81.91
56074;BME280;41950;55.840;37.442;2023-05-02T02:35:12;100252.28;;;1.63;82.06
56074;BME280;41950;55.840;37.442;2023-05-02T02:38:43;100339.88;;;2.14;82.26
56074;BME280;41950;55.840;37.442;2023-05-02T02:40:46;100282.72;;;1.83;82.29
56074;BME280;41950;55.840;37.442;2023-05-02T02:43:23;100340.81;;;2.17;82.46
56074;BME280;41950;55.840;37.442;2023-05-02T02:48:36;100336.78;;;2.26;82.42
56074;BME280;41950;55.840;37.442;2023-05-02T02:51:13;100339.41;;;2.27;82.37
56074;BME280;41950;55.840;37.442;2023-05-02T02:56:29;100310.06;;;2.16;82.52
56074;BME280;41950;55.840;37.442;2023-05-02T02:59:27;100340.44;;;2.35;82.45
56074;BME280;41950;55.840;37.442;2023-05-02T03:02:08;100344.00;;;2.40;82.44
56074;BME280;41950;55.840;37.442;2023-05-02T03:04:37;100320.56;;;2.25;82.09
56074;BME280;41950;55.840;37.442;2023-05-02T03:07:03;100237.53;;;1.84;81.90
56074;BME280;41950;55.840;37.442;2023-05-02T03:09:50;100347.03;;;2.59;81.88
56074;BME280;41950;55.840;37.442;2023-05-02T03:12:16;100185.78;;;1.63;81.69
56074;BME280;41950;55.840;37.442;2023-05-02T03:14:42;100182.38;;;1.64;81.25
56074;BME280;41950;55.840;37.442;2023-05-02T03:17:08;100314.19;;;2.44;81.18
56074;BME280;41950;55.840;37.442;2023-05-02T03:19:34;100266.41;;;2.11;80.86
56074;BME280;41950;55.840;37.442;2023-05-02T03:22:00;100335.94;;;2.58;80.57
56074;BME280;41950;55.840;37.442;2023-05-02T03:24:26;100242.38;;;2.06;80.26
56074;BME280;41950;55.840;37.442;2023-05-02T03:26:55;100270.63;;;2.09;80.08
56074;BME280;41950;55.840;37.442;2023-05-02T03:29:22;100280.44;;;2.26;79.72
56074;BME280;41950;55.840;37.442;2023-05-02T03:31:48;100242.50;;;2.11;79.24
56074;BME280;41950;55.840;37.442;2023-05-02T03:34:13;100278.25;;;2.41;78.98
56074;BME280;41950;55.840;37.442;2023-05-02T03:36:39;100333.72;;;2.73;79.20
56074;BME280;41950;55.840;37.442;2023-05-02T03:39:05;100264.50;;;2.37;78.62
56074;BME280;41950;55.840;37.442;2023-05-02T03:41:31;100307.94;;;2.67;78.48
56074;BME280;41950;55.840;37.442;2023-05-02T03:43:57;100401.66;;;3.25;78.25
56074;BME280;41950;55.840;37.442;2023-05-02T03:46:23;100373.16;;;3.13;78.24
56074;BME280;41950;55.840;37.442;2023-05-02T03:48:48;100354.09;;;3.02;77.74
56074;BME280;41950;55.840;37.442;2023-05-02T03:51:15;100343.78;;;3.00;77.70
56074;BME280;41950;55.840;37.442;2023-05-02T03:53:41;100385.53;;;3.29;77.75
56074;BME280;41950;55.840;37.442;2023-05-02T03:56:07;100403.88;;;3.48;77.65
56074;BME280;41950;55.840;37.442;2023-05-02T03:58:34;100341.63;;;3.17;77.23
56074;BME280;41950;55.840;37.442;2023-05-02T04:01:00;100371.88;;;3.30;77.22
56074;BME280;41950;55.840;37.442;2023-05-02T04:03:26;100353.75;;;3.24;76.97
56074;BME280;41950;55.840;37.442;2023-05-02T04:05:55;100383.25;;;3.43;76.81
56074;BME280;41950;55.840;37.442;2023-05-02T04:08:21;100412.91;;;3.68;76.84
56074;BME280;41950;55.840;37.442;2023-05-02T04:10:49;100290.81;;;3.01;76.88
56074;BME280;41950;55.840;37.442;2023-05-02T04:13:15;100281.34;;;2.98;76.41
56074;BME280;41950;55.840;37.442;2023-05-02T04:15:41;100278.78;;;2.98;76.45
56074;BME280;41950;55.840;37.442;2023-05-02T04:18:09;100373.50;;;3.66;76.30
56074;BME280;41950;55.840;37.442;2023-05-02T04:20:36;100315.53;;;3.35;75.99
56074;BME280;41950;55.840;37.442;2023-05-02T04:23:02;100358.97;;;3.66;75.73
56074;BME280;41950;55.840;37.442;2023-05-02T04:25:28;100345.00;;;3.54;75.39
56074;BME280;41950;55.840;37.442;2023-05-02T04:27:54;100303.72;;;3.43;75.13
56074;BME280;41950;55.840;37.442;2023-05-02T04:30:19;100211.28;;;2.99;75.12
56074;BME280;41950;55.840;37.442;2023-05-02T04:32:45;100408.19;;;4.28;74.80
56074;BME280;41950;55.840;37.442;2023-05-02T04:35:11;100180.47;;;2.98;74.10
56074;BME280;41950;55.840;37.442;2023-05-02T04:37:37;100303.19;;;3.58;73.75
56074;BME280;41950;55.840;37.442;2023-05-02T04:40:03;100294.16;;;3.78;73.37
56074;BME280;41950;55.840;37.442;2023-05-02T04:42:30;100388.66;;;4.38;73.18
56074;BME280;41950;55.840;37.442;2023-05-02T04:44:55;100246.03;;;3.66;73.06
56074;BME280;41950;55.840;37.442;2023-05-02T04:47:21;100387.28;;;4.55;72.53
56074;BME280;41950;55.840;37.442;2023-05-02T04:49:47;100294.63;;;4.01;72.31
56074;BME280;41950;55.840;37.442;2023-05-02T04:52:13;100254.31;;;3.97;71.80
56074;BME280;41950;55.840;37.442;2023-05-02T04:54:39;100257.75;;;3.97;71.41
56074;BME280;41950;55.840;37.442;2023-05-02T04:57:05;100303.75;;;4.32;70.79
56074;BME280;41950;55.840;37.442;2023-05-02T04:59:36;100274.53;;;4.25;70.67
56074;BME280;41950;55.840;37.442;2023-05-02T05:02:04;100319.50;;;4.50;70.24
56074;BME280;41950;55.840;37.442;2023-05-02T05:04:32;100276.38;;;4.34;69.63
56074;BME280;41950;55.840;37.442;2023-05-02T05:06:58;100275.47;;;4.30;69.48
56074;BME280;41950;55.840;37.442;2023-05-02T05:09:24;100446.97;;;5.36;69.30
56074;BME280;41950;55.840;37.442;2023-05-02T05:11:50;100263.69;;;4.42;69.40
56074;BME280;41950;55.840;37.442;2023-05-02T05:14:16;100333.88;;;4.90;69.24
56074;BME280;41950;55.840;37.442;2023-05-02T05:16:44;100399.81;;;5.38;68.79
56074;BME280;41950;55.840;37.442;2023-05-02T05:19:10;100427.69;;;5.65;68.61
56074;BME280;41950;55.840;37.442;2023-05-02T05:21:37;100317.97;;;5.16;68.83
56074;BME280;41950;55.840;37.442;2023-05-02T05:24:03;100330.13;;;5.24;67.92
56074;BME280;41950;55.840;37.442;2023-05-02T05:26:29;100396.00;;;5.71;66.91
56074;BME280;41950;55.840;37.442;2023-05-02T05:28:55;100355.47;;;5.56;66.85
56074;BME280;41950;55.840;37.442;2023-05-02T05:31:21;100268.03;;;5.00;66.24
56074;BME280;41950;55.840;37.442;2023-05-02T05:33:48;100296.00;;;5.38;66.48
56074;BME280;41950;55.840;37.442;2023-05-02T05:36:14;100333.13;;;5.55;66.01
56074;BME280;41950;55.840;37.442;2023-05-02T05:38:40;100343.75;;;5.79;65.99
56074;BME280;41950;55.840;37.442;2023-05-02T05:41:06;100427.00;;;6.43;65.65
56074;BME280;41950;55.840;37.442;2023-05-02T05:43:35;100461.78;;;6.79;65.71
56074;BME280;41950;55.840;37.442;2023-05-02T05:46:02;100353.84;;;6.32;65.08
56074;BME280;41950;55.840;37.442;2023-05-02T05:48:27;100359.13;;;6.44;64.47
56074;BME280;41950;55.840;37.442;2023-05-02T05:50:53;100366.16;;;6.58;64.32
56074;BME280;41950;55.840;37.442;2023-05-02T05:53:19;100368.75;;;6.59;62.83
56074;BME280;41950;55.840;37.442;2023-05-02T05:55:45;100291.91;;;6.26;62.21
56074;BME280;41950;55.840;37.442;2023-05-02T05:58:11;100372.34;;;6.79;62.00
56074;BME280;41950;55.840;37.442;2023-05-02T06:00:37;100359.53;;;6.87;61.75
56074;BME280;41950;55.840;37.442;2023-05-02T06:03:04;100344.09;;;6.90;60.82
56074;BME280;41950;55.840;37.442;2023-05-02T06:05:30;100421.84;;;7.33;59.93
56074;BME280;41950;55.840;37.442;2023-05-02T06:07:56;100461.78;;;7.78;59.74
56074;BME280;41950;55.840;37.442;2023-05-02T06:10:22;100469.59;;;7.87;59.35
56074;BME280;41950;55.840;37.442;2023-05-02T06:12:48;100340.91;;;7.26;58.37
56074;BME280;41950;55.840;37.442;2023-05-02T06:15:17;100318.47;;;7.18;57.05
56074;BME280;41950;55.840;37.442;2023-05-02T06:17:42;100259.78;;;6.86;55.11
56074;BME280;41950;55.840;37.442;2023-05-02T06:20:08;100264.13;;;6.98;55.97
56074;BME280;41950;55.840;37.442;2023-05-02T06:22:35;100265.09;;;7.13;53.12
56074;BME280;41950;55.840;37.442;2023-05-02T06:25:01;100322.09;;;7.44;52.64
56074;BME280;41950;55.840;37.442;2023-05-02T06:27:29;100460.34;;;8.28;50.64
56074;BME280;41950;55.840;37.442;2023-05-02T06:29:55;100323.00;;;7.54;48.88
56074;BME280;41950;55.840;37.442;2023-05-02T06:32:21;100249.66;;;7.23;50.17
56074;BME280;41950;55.840;37.442;2023-05-02T06:34:47;100306.66;;;7.65;51.46
56074;BME280;41950;55.840;37.442;2023-05-02T06:37:12;100376.72;;;8.23;49.93
56074;BME280;41950;55.840;37.442;2023-05-02T06:39:38;100325.78;;;7.95;49.01
56074;BME280;41950;55.840;37.442;2023-05-02T06:42:04;100347.34;;;8.12;48.78
56074;BME280;41950;55.840;37.442;2023-05-02T06:44:30;100331.81;;;8.04;47.89
56074;BME280;41950;55.840;37.442;2023-05-02T06:46:56;100299.09;;;8.05;48.38
56074;BME280;41950;55.840;37.442;2023-05-02T06:49:22;100344.06;;;8.51;49.90
56074;BME280;41950;55.840;37.442;2023-05-02T06:51:47;100425.19;;;9.02;46.49
56074;BME280;41950;55.840;37.442;2023-05-02T06:54:13;100434.69;;;9.00;44.09
56074;BME280;41950;55.840;37.442;2023-05-02T06:56:41;100479.59;;;9.28;43.41
56074;BME280;41950;55.840;37.442;2023-05-02T06:59:07;100423.47;;;8.99;43.93
56074;BME280;41950;55.840;37.442;2023-05-02T07:01:33;100399.31;;;8.88;44.91
56074;BME280;41950;55.840;37.442;2023-05-02T07:04:00;100396.72;;;8.88;44.66
56074;BME280;41950;55.840;37.442;2023-05-02T07:06:28;100333.72;;;8.59;45.11
56074;BME280;41950;55.840;37.442;2023-05-02T07:08:55;100294.00;;;8.48;45.25
56074;BME280;41950;55.840;37.442;2023-05-02T07:11:21;100419.16;;;9.41;45.61
56074;BME280;41950;55.840;37.442;2023-05-02T07:13:49;100335.47;;;9.04;45.31
56074;BME280;41950;55.840;37.442;2023-05-02T07:16:15;100382.91;;;9.34;44.56
56074;BME280;41950;55.840;37.442;2023-05-02T07:18:41;100457.13;;;9.82;44.87
56074;BME280;41950;55.840;37.442;2023-05-02T07:21:07;100350.09;;;9.25;44.53
56074;BME280;41950;55.840;37.442;2023-05-02T07:23:33;100426.91;;;9.70;45.13
56074;BME280;41950;55.840;37.442;2023-05-02T07:25:59;100421.69;;;9.81;44.96
56074;BME280;41950;55.840;37.442;2023-05-02T07:28:25;100390.59;;;9.73;43.77
56074;BME280;41950;55.840;37.442;2023-05-02T07:30:51;100480.38;;;10.20;43.21
56074;BME280;41950;55.840;37.442;2023-05-02T07:33:17;100444.09;;;10.06;42.84
56074;BME280;41950;55.840;37.442;2023-05-02T07:35:42;100390.56;;;9.90;43.07
56074;BME280;41950;55.840;37.442;2023-05-02T07:38:09;100457.84;;;10.43;42.59
56074;BME280;41950;55.840;37.442;2023-05-02T07:40:34;100212.06;;;8.89;40.83
56074;BME280;41950;55.840;37.442;2023-05-02T07:43:01;100406.13;;;9.85;41.15
56074;BME280;41950;55.840;37.442;2023-05-02T07:45:27;100281.03;;;9.25;42.51
56074;BME280;41950;55.840;37.442;2023-05-02T07:47:53;100408.63;;;10.19;43.00
56074;BME280;41950;55.840;37.442;2023-05-02T07:50:18;100389.59;;;10.17;42.01
56074;BME280;41950;55.840;37.442;2023-05-02T07:52:44;100386.16;;;10.06;40.48
56074;BME280;41950;55.840;37.442;2023-05-02T07:55:10;100338.72;;;9.88;41.68
56074;BME280;41950;55.840;37.442;2023-05-02T07:57:36;100430.91;;;10.64;40.91
56074;BME280;41950;55.840;37.442;2023-05-02T08:00:03;100414.47;;;10.62;40.40
56074;BME280;41950;55.840;37.442;2023-05-02T08:02:30;100442.88;;;10.90;41.04
56074;BME280;41950;55.840;37.442;2023-05-02T08:04:56;100372.94;;;10.68;41.88
56074;BME280;41950;55.840;37.442;2023-05-02T08:07:21;100379.72;;;10.86;41.53
56074;BME280;41950;55.840;37.442;2023-05-02T08:09:47;100322.75;;;10.65;40.36
56074;BME280;41950;55.840;37.442;2023-05-02T08:12:13;100277.03;;;10.47;38.24
56074;BME280;41950;55.840;37.442;2023-05-02T08:14:39;100267.56;;;10.37;39.43
56074;BME280;41950;55.840;37.442;2023-05-02T08:17:04;100344.13;;;10.99;40.54
56074;BME280;41950;55.840;37.442;2023-05-02T08:19:30;100338.88;;;11.05;40.81
56074;BME280;41950;55.840;37.442;2023-05-02T08:21:57;100326.59;;;11.19;40.64
56074;BME280;41950;55.840;37.442;2023-05-02T08:24:23;100379.06;;;11.59;40.68
56074;BME280;41950;55.840;37.442;2023-05-02T08:26:49;100332.59;;;11.29;38.41
56074;BME280;41950;55.840;37.442;2023-05-02T08:29:15;100316.16;;;11.27;37.82
56074;BME280;41950;55.840;37.442;2023-05-02T08:31:41;100385.22;;;11.49;35.19
56074;BME280;41950;55.840;37.442;2023-05-02T08:34:07;100341.31;;;11.22;35.65
56074;BME280;41950;55.840;37.442;2023-05-02T08:36:33;100208.69;;;10.46;35.50
56074;BME280;41950;55.840;37.442;2023-05-02T08:38:59;100278.59;;;10.71;34.34
56074;BME280;41950;55.840;37.442;2023-05-02T08:41:27;100352.56;;;11.21;35.39
56074;BME280;41950;55.840;37.442;2023-05-02T08:43:55;100448.97;;;11.91;34.88
56074;BME280;41950;55.840;37.442;2023-05-02T08:46:22;100429.78;;;12.01;34.27
56074;BME280;41950;55.840;37.442;2023-05-02T08:48:48;100327.97;;;11.57;34.36
56074;BME280;41950;55.840;37.442;2023-05-02T08:51:16;100251.94;;;11.36;34.93
56074;BME280;41950;55.840;37.442;2023-05-02T08:53:42;100185.69;;;11.00;34.78
56074;BME280;41950;55.840;37.442;2023-05-02T08:56:10;100356.91;;;12.04;35.19
56074;BME280;41950;55.840;37.442;2023-05-02T08:58:38;100312.97;;;11.83;32.55
56074;BME280;41950;55.840;37.442;2023-05-02T09:01:18;100411.22;;;12.30;31.82
56074;BME280;41950;55.840;37.442;2023-05-02T09:03:46;100312.31;;;11.63;33.69
56074;BME280;41950;55.840;37.442;2023-05-02T09:06:20;100402.47;;;12.37;33.19
56074;BME280;41950;55.840;37.442;2023-05-02T09:08:48;100286.06;;;11.84;32.75
56074;BME280;41950;55.840;37.442;2023-05-02T09:11:15;100410.78;;;12.65;32.17
56074;BME280;41950;55.840;37.442;2023-05-02T09:13:47;100390.78;;;12.67;33.42
56074;BME280;41950;55.840;37.442;2023-05-02T09:16:19;100354.38;;;12.64;34.69
56074;BME280;41950;55.840;37.442;2023-05-02T09:18:54;100367.13;;;12.81;33.35
56074;BME280;41950;55.840;37.442;2023-05-02T09:23:49;100400.13;;;12.79;32.17
56074;BME280;41950;55.840;37.442;2023-05-02T09:26:18;100405.25;;;12.85;34.15
56074;BME280;41950;55.840;37.442;2023-05-02T09:28:51;100339.75;;;12.53;33.21
56074;BME280;41950;55.840;37.442;2023-05-02T09:31:37;100364.66;;;12.72;31.95
56074;BME280;41950;55.840;37.442;2023-05-02T09:34:10;100331.97;;;12.51;32.58
56074;BME280;41950;55.840;37.442;2023-05-02T09:36:48;100261.97;;;12.31;32.62
56074;BME280;41950;55.840;37.442;2023-05-02T09:39:26;100369.47;;;12.98;31.83
56074;BME280;41950;55.840;37.442;2023-05-02T09:41:56;100401.66;;;12.94;30.92
56074;BME280;41950;55.840;37.442;2023-05-02T09:44:24;100256.44;;;11.94;30.71
56074;BME280;41950;55.840;37.442;2023-05-02T09:46:54;100260.03;;;11.87;31.16
56074;BME280;41950;55.840;37.442;2023-05-02T09:49:41;100391.22;;;12.95;32.08
56074;BME280;41950;55.840;37.442;2023-05-02T09:52:12;100391.72;;;13.20;31.35
56074;BME280;41950;55.840;37.442;2023-05-02T09:54:39;100166.78;;;12.18;32.37
56074;BME280;41950;55.840;37.442;2023-05-02T09:57:04;100134.63;;;12.70;33.12
56074;BME280;41950;55.840;37.442;2023-05-02T09:59:32;100387.56;;;14.86;31.41
56074;BME280;41950;55.840;37.442;2023-05-02T10:02:02;100277.50;;;14.63;29.02
56074;BME280;41950;55.840;37.442;2023-05-02T10:04:30;100384.03;;;15.57;28.51
56074;BME280;41950;55.840;37.442;2023-05-02T10:06:56;100335.88;;;15.65;28.94
56074;BME280;41950;55.840;37.442;2023-05-02T10:09:24;100346.91;;;16.06;29.58
56074;BME280;41950;55.840;37.442;2023-05-02T10:11:52;100306.91;;;16.01;27.41
56074;BME280;41950;55.840;37.442;2023-05-02T10:14:23;100289.50;;;16.00;29.24
56074;BME280;41950;55.840;37.442;2023-05-02T10:17:03;100368.03;;;16.59;27.09
56074;BME280;41950;55.840;37.442;2023-05-02T10:19:37;100233.06;;;16.19;26.54
56074;BME280;41950;55.840;37.442;2023-05-02T10:22:04;100334.72;;;17.42;26.68
56074;BME280;41950;55.840;37.442;2023-05-02T10:24:33;100221.34;;;16.84;25.34
56074;BME280;41950;55.840;37.442;2023-05-02T10:26:59;100368.09;;;16.85;24.83
56074;BME280;41950;55.840;37.442;2023-05-02T10:29:30;100330.00;;;16.18;26.51
56074;BME280;41950;55.840;37.442;2023-05-02T10:31:57;100269.47;;;16.27;27.10
56074;BME280;41950;55.840;37.442;2023-05-02T10:34:26;100292.09;;;17.10;26.63
56074;BME280;41950;55.840;37.442;2023-05-02T10:36:54;100347.69;;;17.96;25.52
56074;BME280;41950;55.840;37.442;2023-05-02T10:39:21;100251.66;;;17.41;25.10
56074;BME280;41950;55.840;37.442;2023-05-02T10:41:50;100242.00;;;17.89;24.66
56074;BME280;41950;55.840;37.442;2023-05-02T10:44:38;100225.53;;;18.30;24.09
56074;BME280;41950;55.840;37.442;2023-05-02T10:47:23;100347.69;;;19.49;22.44
56074;BME280;41950;55.840;37.442;2023-05-02T10:50:00;100342.13;;;19.14;23.45
56074;BME280;41950;55.840;37.442;2023-05-02T10:52:31;100339.34;;;19.19;23.73
56074;BME280;41950;55.840;37.442;2023-05-02T10:55:13;100336.53;;;19.02;22.76
56074;BME280;41950;55.840;37.442;2023-05-02T11:00:28;100329.28;;;19.88;22.71
56074;BME280;41950;55.840;37.442;2023-05-02T11:02:55;100214.03;;;19.93;22.09
56074;BME280;41950;55.840;37.442;2023-05-02T11:05:22;100213.97;;;20.31;21.00
56074;BME280;41950;55.840;37.442;2023-05-02T11:07:49;100232.88;;;20.41;21.60
56074;BME280;41950;55.840;37.442;2023-05-02T11:12:48;100326.31;;;21.75;20.36
56074;BME280;41950;55.840;37.442;2023-05-02T11:18:10;100183.59;;;21.10;21.07
56074;BME280;41950;55.840;37.442;2023-05-02T11:20:39;100160.47;;;21.64;20.95
56074;BME280;41950;55.840;37.442;2023-05-02T11:23:23;100311.72;;;22.79;19.53
56074;BME280;41950;55.840;37.442;2023-05-02T11:25:56;100247.88;;;22.24;20.27
56074;BME280;41950;55.840;37.442;2023-05-02T11:34:00;100123.41;;;22.71;18.94
56074;BME280;41950;55.840;37.442;2023-05-02T11:36:31;100153.81;;;22.94;19.44
56074;BME280;41950;55.840;37.442;2023-05-02T11:39:03;100067.91;;;22.41;18.71
56074;BME280;41950;55.840;37.442;2023-05-02T11:41:40;100292.56;;;23.06;20.33
56074;BME280;41950;55.840;37.442;2023-05-02T11:44:06;100168.81;;;22.79;19.10
56074;BME280;41950;55.840;37.442;2023-05-02T11:46:35;100218.94;;;22.67;18.58
56074;BME280;41950;55.840;37.442;2023-05-02T11:49:01;100112.75;;;21.51;18.65
56074;BME280;41950;55.840;37.442;2023-05-02T11:51:27;100146.31;;;21.16;18.71
56074;BME280;41950;55.840;37.442;2023-05-02T11:53:53;100188.91;;;21.90;18.99
56074;BME280;41950;55.840;37.442;2023-05-02T11:56:24;100153.94;;;22.33;18.09
56074;BME280;41950;55.840;37.442;2023-05-02T11:59:01;100172.03;;;21.62;18.88
56074;BME280;41950;55.840;37.442;2023-05-02T12:01:28;100127.44;;;20.91;19.48
56074;BME280;41950;55.840;37.442;2023-05-02T12:04:05;100220.16;;;21.51;19.33
56074;BME280;41950;55.840;37.442;2023-05-02T12:06:35;100164.97;;;21.62;20.71
56074;BME280;41950;55.840;37.442;2023-05-02T12:09:08;100072.91;;;21.86;20.34
56074;BME280;41950;55.840;37.442;2023-05-02T12:11:35;100086.03;;;22.33;20.33
56074;BME280;41950;55.840;37.442;2023-05-02T12:14:03;100115.25;;;23.04;18.88
56074;BME280;41950;55.840;37.442;2023-05-02T12:16:31;100150.66;;;23.87;18.55
56074;BME280;41950;55.840;37.442;2023-05-02T12:18:57;100104.34;;;23.23;17.69
56074;BME280;41950;55.840;37.442;2023-05-02T12:21:28;100230.72;;;23.50;17.38
56074;BME280;41950;55.840;37.442;2023-05-02T12:24:02;100104.09;;;22.11;17.79
56074;BME280;41950;55.840;37.442;2023-05-02T12:26:28;100178.03;;;22.42;18.55
56074;BME280;41950;55.840;37.442;2023-05-02T12:28:56;100245.72;;;22.46;19.11
56074;BME280;41950;55.840;37.442;2023-05-02T12:31:27;100109.50;;;20.80;21.34
56074;BME280;41950;55.840;37.442;2023-05-02T12:33:55;100176.88;;;20.53;21.53
56074;BME280;41950;55.840;37.442;2023-05-02T12:36:26;100153.81;;;19.67;21.24
56074;BME280;41950;55.840;37.442;2023-05-02T12:38:56;100235.41;;;19.48;21.28
56074;BME280;41950;55.840;37.442;2023-05-02T12:41:37;100120.72;;;18.02;22.29
56074;BME280;41950;55.840;37.442;2023-05-02T12:44:06;100059.28;;;17.40;23.88
56074;BME280;41950;55.840;37.442;2023-05-02T12:46:32;100240.50;;;18.28;25.31
56074;BME280;41950;55.840;37.442;2023-05-02T12:49:06;100182.94;;;17.54;23.99
56074;BME280;41950;55.840;37.442;2023-05-02T12:51:38;100121.56;;;17.12;24.61
56074;BME280;41950;55.840;37.442;2023-05-02T12:54:04;100109.72;;;17.02;24.60
56074;BME280;41950;55.840;37.442;2023-05-02T12:56:40;100165.56;;;17.28;26.78
56074;BME280;41950;55.840;37.442;2023-05-02T12:59:10;100164.78;;;17.25;26.60
56074;BME280;41950;55.840;37.442;2023-05-02T13:01:50;100113.22;;;16.77;25.05
56074;BME280;41950;55.840;37.442;2023-05-02T13:04:15;100100.28;;;16.73;24.24
56074;BME280;41950;55.840;37.442;2023-05-02T13:06:41;100061.94;;;16.45;25.12
56074;BME280;41950;55.840;37.442;2023-05-02T13:09:07;100011.03;;;16.02;23.99
56074;BME280;41950;55.840;37.442;2023-05-02T13:11:33;100091.41;;;16.25;24.07
56074;BME280;41950;55.840;37.442;2023-05-02T13:13:59;100135.16;;;16.23;24.41
56074;BME280;41950;55.840;37.442;2023-05-02T13:16:27;100136.84;;;15.98;24.67
56074;BME280;41950;55.840;37.442;2023-05-02T13:18:54;100159.53;;;16.25;25.23
56074;BME280;41950;55.840;37.442;2023-05-02T13:21:20;99982.81;;;15.31;26.44
56074;BME280;41950;55.840;37.442;2023-05-02T13:23:46;100081.00;;;15.97;25.55